Time;durP1;ratioP1;P1;durP2;ratioP2;P2;SDS_P1;SDS_P2;PMS_P1;PMS_P2;Temp;Humidity;BMP_temperature;BMP_pressure;BME280_temperature;BME280_humidity;BME280_pressure;Samples;Min_cycle;Max_cycle;Signal;HPM_P1;HPM_P2
2021/04/01 00:01:15;;;;;;;117.05;88.68;;;;;;;10.67;65.80;100577.67;122178;1152;24686;-74
2021/04/01 00:03:47;;;;;;;116.05;84.15;;;;;;;10.66;65.87;100577.81;122235;1154;22631;-74
2021/04/01 00:06:15;;;;;;;122.28;84.98;;;;;;;10.63;65.99;100570.22;122086;1152;22547;-74
2021/04/01 00:08:44;;;;;;;122.98;89.30;;;;;;;10.62;66.01;100568.57;122179;1151;22531;-74
2021/04/01 00:11:14;;;;;;;112.13;84.20;;;;;;;10.60;65.99;100568.75;122133;1153;22558;-74
2021/04/01 00:13:43;;;;;;;118.08;86.47;;;;;;;10.57;66.10;100564.61;122250;1152;23323;-74
2021/04/01 00:16:11;;;;;;;116.53;88.28;;;;;;;10.53;66.00;100565.92;122121;1154;22622;-74
2021/04/01 00:18:39;;;;;;;124.88;90.43;;;;;;;10.48;65.82;100562.11;122114;1152;22547;-74
2021/04/01 00:21:08;;;;;;;123.85;92.35;;;;;;;10.42;65.94;100563.58;122101;1152;22642;-74
2021/04/01 00:23:36;;;;;;;122.85;90.65;;;;;;;10.36;66.10;100553.66;122212;1152;22539;-74
2021/04/01 00:26:05;;;;;;;115.60;84.63;;;;;;;10.33;66.16;100551.36;122202;1152;22571;-74
2021/04/01 00:28:33;;;;;;;112.65;83.53;;;;;;;10.29;66.35;100544.73;122115;1152;25213;-74
2021/04/01 00:31:01;;;;;;;113.48;80.95;;;;;;;10.26;66.50;100553.81;122083;1152;22549;-74
2021/04/01 00:33:30;;;;;;;110.43;80.70;;;;;;;10.23;66.62;100543.55;122117;1155;22540;-74
2021/04/01 00:35:58;;;;;;;108.68;80.78;;;;;;;10.21;66.76;100542.05;122147;1152;22535;-74
2021/04/01 00:38:27;;;;;;;107.30;79.00;;;;;;;10.19;66.83;100542.19;122135;1152;22636;-74
2021/04/01 00:40:56;;;;;;;105.75;77.68;;;;;;;10.16;66.98;100533.77;122121;1152;22611;-74
2021/04/01 00:43:27;;;;;;;106.33;79.85;;;;;;;10.11;67.16;100532.44;122095;1152;22534;-73
2021/04/01 00:45:55;;;;;;;110.20;82.03;;;;;;;10.09;67.24;100533.58;122112;1152;23192;-74
2021/04/01 00:48:24;;;;;;;119.88;83.83;;;;;;;10.08;67.43;100531.94;122119;1152;22545;-74
2021/04/01 00:50:52;;;;;;;117.67;82.67;;;;;;;10.07;67.77;100520.55;122086;1151;22535;-74
2021/04/01 00:53:21;;;;;;;111.78;82.60;;;;;;;10.04;67.72;100520.05;122074;1155;22634;-74
2021/04/01 00:55:49;;;;;;;116.83;84.90;;;;;;;10.03;67.79;100523.66;122162;1154;24964;-74
2021/04/01 00:58:18;;;;;;;113.13;84.23;;;;;;;10.00;67.58;100516.91;122053;1152;24696;-74
2021/04/01 01:00:53;;;;;;;118.53;85.58;;;;;;;9.97;67.79;100511.95;122150;1154;22535;-73
2021/04/01 01:03:22;;;;;;;115.60;84.38;;;;;;;9.92;67.60;100502.84;122057;1152;22547;-74
2021/04/01 01:05:50;;;;;;;115.65;84.30;;;;;;;9.90;67.75;100505.66;122170;1154;22540;-74
2021/04/01 01:08:18;;;;;;;127.73;86.98;;;;;;;9.85;67.55;100498.20;122102;1152;22538;-73
2021/04/01 01:10:47;;;;;;;124.03;88.25;;;;;;;9.79;67.42;100496.20;122121;1152;23068;-73
2021/04/01 01:13:15;;;;;;;120.33;89.10;;;;;;;9.68;67.76;100488.58;122199;1152;22547;-73
2021/04/01 01:15:43;;;;;;;115.90;86.83;;;;;;;9.56;68.36;100484.55;122093;1155;22547;-74
2021/04/01 01:18:11;;;;;;;113.83;84.08;;;;;;;9.50;68.73;100472.02;122197;1152;22539;-73
2021/04/01 01:20:40;;;;;;;119.67;86.10;;;;;;;9.47;69.04;100473.16;122116;1151;23421;-73
2021/04/01 01:23:19;;;;;;;111.40;81.93;;;;;;;9.46;69.31;100468.02;122106;1152;22874;-74
2021/04/01 01:25:47;;;;;;;111.30;83.50;;;;;;;9.42;69.42;100462.24;122102;1151;22542;-73
2021/04/01 01:28:16;;;;;;;107.63;80.10;;;;;;;9.39;68.82;100462.55;122221;1152;22545;-73
2021/04/01 01:30:49;;;;;;;105.75;79.68;;;;;;;9.31;69.20;100454.62;122354;1152;23328;-76
2021/04/01 01:33:23;;;;;;;103.88;79.95;;;;;;;9.28;69.60;100447.84;121749;1155;24211;-74
2021/04/01 01:35:54;;;;;;;104.83;80.92;;;;;;;9.28;69.58;100445.20;122155;1152;22694;-74
2021/04/01 01:38:23;;;;;;;107.30;82.23;;;;;;;9.32;69.99;100450.98;122143;1152;22546;-73
2021/04/01 01:40:52;;;;;;;102.78;80.00;;;;;;;9.33;69.75;100440.30;121963;1152;22538;-74
2021/04/01 01:43:20;;;;;;;112.20;84.45;;;;;;;9.35;69.66;100440.95;122184;1154;24696;-75
2021/04/01 01:45:48;;;;;;;106.65;83.13;;;;;;;9.35;69.68;100433.05;122103;1152;22547;-74
2021/04/01 01:48:17;;;;;;;103.35;83.38;;;;;;;9.35;69.73;100435.68;122193;1152;22774;-74
2021/04/01 01:50:45;;;;;;;106.38;82.15;;;;;;;9.33;69.83;100437.67;122098;1152;22532;-75
2021/04/01 01:53:14;;;;;;;106.00;83.70;;;;;;;9.30;69.78;100432.70;122273;1154;22548;-74
2021/04/01 01:55:44;;;;;;;111.95;84.38;;;;;;;9.30;69.93;100431.89;122125;1152;24825;-75
2021/04/01 01:58:12;;;;;;;110.75;83.78;;;;;;;9.29;69.54;100427.58;122119;1155;22626;-74
2021/04/01 02:00:50;;;;;;;109.50;79.60;;;;;;;9.26;69.75;100426.08;122048;1152;22551;-74
2021/04/01 02:03:21;;;;;;;108.53;82.58;;;;;;;9.28;69.94;100437.30;122121;1152;24686;-74
2021/04/01 02:05:51;;;;;;;102.95;79.33;;;;;;;9.29;70.00;100431.03;122447;1154;22534;-74
2021/04/01 02:08:20;;;;;;;107.90;82.33;;;;;;;9.29;69.65;100424.94;122247;1152;24415;-74
2021/04/01 02:10:51;;;;;;;104.13;80.03;;;;;;;9.29;69.56;100432.84;122111;1151;24676;-74
2021/04/01 02:13:22;;;;;;;106.27;82.60;;;;;;;9.24;69.90;100430.69;122348;1154;22541;-75
2021/04/01 02:15:55;;;;;;;102.75;77.33;;;;;;;9.24;69.69;100435.97;122116;1152;22571;-74
2021/04/01 02:18:29;;;;;;;97.13;78.73;;;;;;;9.22;70.29;100430.02;122120;1152;22730;-74
2021/04/01 02:21:01;;;;;;;107.00;81.98;;;;;;;9.19;69.92;100425.05;122181;1152;22544;-73
2021/04/01 02:23:34;;;;;;;;;;;;;;;9.12;69.80;100421.39;122150;1156;22544;-73
2021/04/01 02:26:05;;;;;;;99.28;76.85;;;;;;;9.04;69.91;100418.73;122237;1155;23047;-74
2021/04/01 02:28:36;;;;;;;98.60;75.58;;;;;;;9.02;69.95;100425.95;122093;1152;22550;-74
2021/04/01 02:31:10;;;;;;;97.18;75.68;;;;;;;9.00;69.97;100422.63;122124;1152;22540;-74
2021/04/01 02:33:39;;;;;;;99.70;78.98;;;;;;;9.02;70.09;100423.31;122196;1154;22547;-74
2021/04/01 02:36:08;;;;;;;108.28;81.03;;;;;;;9.00;69.84;100418.22;122138;1155;22560;-75
2021/04/01 02:38:37;;;;;;;105.75;81.00;;;;;;;9.00;70.18;100412.95;122005;1152;22623;-75
2021/04/01 02:41:05;;;;;;;113.53;82.63;;;;;;;8.95;70.17;100413.39;122138;1154;22530;-75
2021/04/01 02:43:33;;;;;;;110.25;81.68;;;;;;;8.95;70.16;100407.30;122113;1155;22536;-74
2021/04/01 02:46:07;;;;;;;99.15;76.03;;;;;;;8.93;70.25;100406.66;122570;1152;23568;-74
2021/04/01 02:48:39;;;;;;;103.55;78.08;;;;;;;8.90;70.34;100404.33;122231;1152;22542;-74
2021/04/01 02:51:07;;;;;;;98.28;76.38;;;;;;;8.85;70.34;100399.50;122106;1155;22681;-74
2021/04/01 02:53:36;;;;;;;90.45;72.30;;;;;;;8.79;70.67;100405.39;122118;1152;22688;-74
2021/04/01 02:56:04;;;;;;;97.93;73.45;;;;;;;8.79;70.83;100397.48;122102;1155;22544;-74
2021/04/01 02:58:34;;;;;;;90.53;73.38;;;;;;;8.78;70.97;100401.11;122105;1152;23059;-73
2021/04/01 03:01:02;;;;;;;84.23;69.98;;;;;;;8.74;70.76;100398.95;122206;1154;22542;-74
2021/04/01 03:03:43;;;;;;;92.75;72.83;;;;;;;8.64;71.42;100397.23;122132;1152;23566;-74
2021/04/01 03:06:12;;;;;;;92.50;70.55;;;;;;;8.62;70.99;100393.09;122144;1152;22549;-75
2021/04/01 03:08:40;;;;;;;85.58;70.50;;;;;;;8.64;71.28;100394.60;121521;1155;22547;-74
2021/04/01 03:11:08;;;;;;;84.15;67.38;;;;;;;8.62;71.00;100391.28;122006;1155;23428;-73
2021/04/01 03:13:37;;;;;;;83.68;69.18;;;;;;;8.59;70.95;100398.67;121993;1155;22852;-75
2021/04/01 03:16:05;;;;;;;91.25;70.10;;;;;;;8.59;71.42;100396.03;122052;1156;22544;-74
2021/04/01 03:18:33;;;;;;;85.97;69.80;;;;;;;8.60;71.65;100398.53;121551;1155;22839;-74
2021/04/01 03:21:02;;;;;;;87.20;70.50;;;;;;;8.62;71.51;100395.73;122089;1155;23741;-73
2021/04/01 03:23:30;;;;;;;87.25;68.83;;;;;;;8.63;71.32;100394.73;121689;1156;22959;-74
2021/04/01 03:25:59;;;;;;;86.20;67.98;;;;;;;8.64;71.03;100391.15;121995;1155;22639;-75
2021/04/01 03:28:27;;;;;;;81.03;65.75;;;;;;;8.64;71.43;100384.07;121976;1155;22550;-74
2021/04/01 03:31:06;;;;;;;95.20;72.00;;;;;;;8.65;71.64;100384.89;121952;1155;23106;-75
2021/04/01 03:33:34;;;;;;;90.45;70.43;;;;;;;8.64;71.50;100389.33;122072;1152;24987;-73
2021/04/01 03:36:04;;;;;;;88.38;70.50;;;;;;;8.63;71.31;100390.33;122385;1152;22557;-73
2021/04/01 03:38:32;;;;;;;88.65;69.83;;;;;;;8.64;71.39;100391.15;122206;1152;22554;-74
2021/04/01 03:41:01;;;;;;;84.48;68.50;;;;;;;8.64;71.07;100388.52;122159;1152;22547;-74
2021/04/01 03:43:29;;;;;;;86.95;70.60;;;;;;;8.63;71.45;100384.20;122105;1152;22540;-74
2021/04/01 03:45:57;;;;;;;81.40;68.53;;;;;;;8.62;71.40;100378.12;122426;1152;22536;-74
2021/04/01 03:48:26;;;;;;;91.17;67.50;;;;;;;8.61;71.52;100373.84;122101;1152;24683;-74
2021/04/01 03:50:54;;;;;;;80.15;64.60;;;;;;;8.57;70.83;100374.31;122050;1152;25157;-74
2021/04/01 03:53:23;;;;;;;79.18;67.55;;;;;;;8.44;70.96;100374.71;122172;1154;24693;-74
2021/04/01 03:55:52;;;;;;;74.58;65.33;;;;;;;8.29;71.11;100366.48;122053;1152;22534;-74
2021/04/01 04:04:16;;;;;;;83.30;67.93;;;;;;;7.99;71.60;100365.91;121577;1158;22540;-75
2021/04/01 04:09:52;;;;;;;103.70;76.50;;;;;;;7.87;71.92;100356.61;121961;1155;24463;-74
2021/04/01 04:12:46;;;;;;;96.58;74.30;;;;;;;7.87;72.42;100359.23;121526;1155;24940;-74
2021/04/01 04:15:19;;;;;;;96.63;75.88;;;;;;;7.90;72.57;100361.57;121662;1155;22571;-74
2021/04/01 04:17:47;;;;;;;102.28;75.23;;;;;;;7.93;72.39;100363.91;121668;1155;22560;-74
2021/04/01 04:20:16;;;;;;;99.23;77.70;;;;;;;7.95;72.17;100361.11;121713;1155;22643;-74
2021/04/01 04:22:47;;;;;;;99.75;77.83;;;;;;;7.95;72.22;100358.48;121678;1155;24435;-74
2021/04/01 04:25:16;;;;;;;128.53;89.93;;;;;;;7.96;72.60;100345.19;121513;1155;22598;-75
2021/04/01 04:30:20;;;;;;;120.35;84.23;;;;;;;8.01;72.73;100342.91;121654;1155;22558;-74
2021/04/01 04:32:48;;;;;;;148.43;94.63;;;;;;;8.05;72.42;100342.62;121572;1155;25973;-74
2021/04/01 04:35:17;;;;;;;144.78;91.83;;;;;;;8.06;72.36;100337.19;121650;1155;22567;-74
2021/04/01 04:37:46;;;;;;;125.30;85.05;;;;;;;8.10;72.34;100335.11;121655;1154;22547;-74
2021/04/01 04:40:15;;;;;;;124.05;83.33;;;;;;;8.10;72.39;100338.56;122382;1152;22590;-74
2021/04/01 04:42:43;;;;;;;111.43;81.47;;;;;;;8.06;71.90;100339.81;122115;1152;22547;-74
2021/04/01 04:45:12;;;;;;;108.75;79.40;;;;;;;8.00;71.81;100333.38;122348;1152;22540;-73
2021/04/01 04:47:40;;;;;;;115.23;79.90;;;;;;;7.96;71.89;100329.41;122098;1152;22986;-74
2021/04/01 04:50:10;;;;;;;103.38;75.65;;;;;;;7.96;72.09;100328.55;122189;1155;25193;-74
2021/04/01 04:52:39;;;;;;;102.50;75.40;;;;;;;7.96;72.25;100324.15;122195;1152;23443;-73
2021/04/01 04:55:11;;;;;;;110.05;78.93;;;;;;;8.01;71.96;100326.31;122358;1152;22539;-73
2021/04/01 05:05:29;;;;;;;94.80;76.25;;;;;;;8.04;72.24;100319.92;121994;1155;22557;-72
2021/04/01 05:07:57;;;;;;;107.00;80.53;;;;;;;8.10;72.46;100321.95;121650;1155;24715;-72
2021/04/01 05:10:25;;;;;;;104.38;83.93;;;;;;;8.20;72.32;100317.42;121965;1155;22576;-72
2021/04/01 05:13:11;;;;;;;122.73;86.28;;;;;;;8.29;72.01;100324.38;121658;1155;22565;-72
2021/04/01 05:15:47;;;;;;;108.18;80.63;;;;;;;8.36;71.86;100325.41;121985;1154;22556;-72
2021/04/01 05:18:25;;;;;;;115.23;80.50;;;;;;;8.47;72.04;100327.84;121818;1152;22730;-73
2021/04/01 05:20:56;;;;;;;91.25;70.60;;;;;;;8.57;71.85;100325.11;122240;1151;22531;-72
2021/04/01 05:23:48;;;;;;;117.95;78.25;;;;;;;8.67;71.72;100330.27;122216;1151;24579;-72
2021/04/01 05:26:33;;;;;;;107.58;73.95;;;;;;;8.80;71.64;100330.67;122136;1152;22630;-72
2021/04/01 05:29:06;;;;;;;128.15;84.45;;;;;;;8.92;70.98;100323.30;122137;1154;22525;-72
2021/04/01 05:31:36;;;;;;;116.43;85.53;;;;;;;9.03;71.06;100322.19;122172;1152;22550;-73
2021/04/01 05:34:05;;;;;;;134.20;94.98;;;;;;;9.15;70.98;100324.39;122162;1152;22540;-73
2021/04/01 05:36:41;;;;;;;139.20;98.53;;;;;;;9.24;70.25;100317.35;122138;1152;23450;-73
2021/04/01 05:39:13;;;;;;;136.25;94.45;;;;;;;9.27;69.92;100314.39;121740;1156;22642;-78
2021/04/01 05:41:45;;;;;;;130.58;89.65;;;;;;;9.30;69.26;100314.08;122091;1155;22621;-78
2021/04/01 05:50:18;;;;;;;130.03;90.00;;;;;;;9.53;69.48;100316.09;121730;1155;23049;-75
2021/04/01 06:00:52;;;;;;;119.83;96.40;;;;;;;9.90;67.78;100316.48;122521;1152;22542;-77
2021/04/01 06:03:49;;;;;;;107.38;79.10;;;;;;;9.99;67.80;100308.56;121762;1155;22642;-77
2021/04/01 06:06:29;;;;;;;111.43;80.38;;;;;;;10.05;67.84;100310.55;121529;1158;23052;-77
2021/04/01 06:09:03;;;;;;;105.80;75.80;;;;;;;10.14;67.84;100312.20;121505;1160;23358;-78
2021/04/01 06:11:32;;;;;;;105.15;75.03;;;;;;;10.29;68.28;100304.45;121295;1158;22550;-76
2021/04/01 06:14:12;;;;;;;106.10;79.37;;;;;;;10.48;67.99;100300.64;121496;1158;22551;-76
2021/04/01 06:16:45;;;;;;;98.03;69.73;;;;;;;10.58;67.38;100302.09;121141;1161;22633;-75
2021/04/01 06:19:16;;;;;;;92.50;69.77;;;;;;;10.68;66.86;100311.65;120927;1164;22587;-76
2021/04/01 06:21:49;;;;;;;82.15;64.65;;;;;;;10.80;66.96;100311.13;120950;1162;22585;-76
2021/04/01 06:24:27;;;;;;;85.60;66.10;;;;;;;10.95;66.95;100302.47;120846;1164;24425;-77
2021/04/01 06:29:38;;;;;;;76.20;60.20;;;;;;;11.11;65.85;100302.41;121199;1161;25256;-76
2021/04/01 06:32:22;;;;;;;78.25;61.45;;;;;;;11.17;66.06;100300.91;121219;1161;22623;-76
2021/04/01 06:34:51;;;;;;;77.60;63.30;;;;;;;11.26;66.04;100297.20;121204;1158;22630;-76
2021/04/01 06:37:45;;;;;;;77.53;59.85;;;;;;;11.36;65.78;100297.80;121354;1155;22571;-76
2021/04/01 06:40:14;;;;;;;72.98;60.58;;;;;;;11.49;65.72;100307.81;121141;1158;22766;-75
2021/04/01 06:42:54;;;;;;;75.30;58.10;;;;;;;11.60;65.57;100298.68;121221;1155;22582;-76
2021/04/01 06:45:24;;;;;;;75.17;63.40;;;;;;;11.74;65.65;100301.38;121605;1155;22915;-76
2021/04/01 06:47:57;;;;;;;73.28;59.63;;;;;;;11.91;65.47;100299.45;121643;1155;22556;-76
2021/04/01 06:50:33;;;;;;;74.95;60.50;;;;;;;12.12;65.62;100296.13;121627;1155;22620;-77
2021/04/01 06:53:10;;;;;;;81.95;65.28;;;;;;;12.33;65.10;100305.20;121568;1155;23321;-76
2021/04/01 06:56:18;;;;;;;88.88;63.25;;;;;;;12.59;65.04;100302.95;121696;1155;24693;-79
2021/04/01 07:02:21;;;;;;;72.93;58.23;;;;;;;13.23;63.83;100298.89;121428;1158;22558;-76
2021/04/01 07:04:55;;;;;;;69.03;54.88;;;;;;;13.48;62.97;100296.77;121782;1154;22583;-77
2021/04/01 07:07:24;;;;;;;69.73;56.65;;;;;;;13.64;62.18;100291.22;122480;1155;22551;-76
2021/04/01 07:10:30;;;;;;;64.23;55.25;;;;;;;13.75;61.85;100290.70;121649;1156;24560;-76
2021/04/01 07:12:50;;;;;;;69.00;54.65;;;;;;;13.93;61.54;100298.23;121121;1161;22670;-76
2021/04/01 07:15:22;;;;;;;71.78;55.88;;;;;;;14.12;61.58;100305.53;121139;1161;22574;-77
2021/04/01 07:18:05;;;;;;;66.13;55.70;;;;;;;14.39;61.08;100286.31;121146;1161;22558;-76
2021/04/01 07:48:47;;;;;;;57.43;43.75;;;;;;;17.24;53.46;100275.20;121263;1158;22539;-77
2021/04/01 07:54:16;;;;;;;44.90;37.93;;;;;;;17.82;50.73;100267.04;121508;1157;22606;-78
2021/04/01 07:56:59;;;;;;;43.20;36.00;;;;;;;18.08;49.71;100266.02;121697;1154;22569;-78
2021/04/01 07:59:35;;;;;;;41.47;36.97;;;;;;;18.26;48.48;100266.06;121987;1155;22725;-77
2021/04/01 08:02:53;;;;;;;51.60;35.83;;;;;;;18.49;47.79;100275.28;121686;1154;24461;-77
2021/04/01 08:05:30;;;;;;;43.95;38.88;;;;;;;18.81;47.36;100263.44;121818;1155;22655;-76
2021/04/01 08:08:02;;;;;;;45.68;38.58;;;;;;;19.22;46.69;100267.24;122510;1152;22600;-78
2021/04/01 08:10:39;;;;;;;50.03;40.35;;;;;;;19.66;45.84;100261.70;122103;1156;22643;-77
2021/04/01 08:13:13;;;;;;;44.53;36.60;;;;;;;20.08;44.96;100251.75;122083;1156;23132;-79
2021/04/01 08:15:49;;;;;;;40.58;36.25;;;;;;;20.53;43.77;100258.42;122159;1155;23427;-77
2021/04/01 08:20:57;;;;;;;42.30;36.00;;;;;;;21.29;42.09;100259.11;121248;1158;23522;-82
2021/04/01 08:23:53;;;;;;;45.55;35.60;;;;;;;21.59;41.29;100254.34;121249;1161;22592;-78
2021/04/01 08:26:53;;;;;;;48.58;35.85;;;;;;;21.83;41.05;100249.63;121140;1160;22584;-78
2021/04/01 08:35:56;;;;;;;43.35;34.93;;;;;;;22.32;40.21;100254.40;121416;1157;22608;-74
2021/04/01 08:38:46;;;;;;;77.60;41.88;;;;;;;22.45;39.74;100243.28;121993;1155;22559;-76
2021/04/01 08:41:35;;;;;;;41.38;34.13;;;;;;;22.46;39.11;100241.39;122041;1155;24464;-78
2021/04/01 08:44:51;;;;;;;47.73;38.15;;;;;;;22.52;39.01;100240.41;122070;1155;22559;-75
2021/04/01 08:48:20;;;;;;;39.95;35.65;;;;;;;22.62;38.48;100237.03;122394;1154;22550;-76
2021/04/01 08:51:11;;;;;;;41.10;35.18;;;;;;;22.70;38.44;100234.73;122327;1152;22536;-78
2021/04/01 08:54:18;;;;;;;40.90;32.05;;;;;;;22.85;38.48;100244.86;122167;1152;22537;-78
2021/04/01 08:57:20;;;;;;;43.20;32.83;;;;;;;23.19;38.01;100236.64;122195;1152;23464;-80
2021/04/01 09:00:03;;;;;;;33.98;30.30;;;;;;;23.42;37.18;100225.54;122151;1152;22553;-80
2021/04/01 09:02:32;;;;;;;33.38;29.58;;;;;;;23.58;36.31;100231.08;122199;1152;22525;-78
2021/04/01 09:05:06;;;;;;;36.45;30.43;;;;;;;23.71;36.35;100225.29;122177;1152;22598;-78
2021/04/01 09:07:44;;;;;;;37.33;31.60;;;;;;;23.88;36.05;100225.95;122235;1154;22544;-76
2021/04/01 09:13:07;;;;;;;35.48;30.85;;;;;;;24.35;35.05;100218.95;122188;1152;22617;-77
2021/04/01 09:18:31;;;;;;;34.13;30.43;;;;;;;24.15;33.91;100212.36;122231;1152;23494;-77
2021/04/01 09:21:05;;;;;;;33.08;29.50;;;;;;;23.92;34.04;100201.97;122211;1153;22539;-76
2021/04/01 09:23:38;;;;;;;34.15;29.45;;;;;;;23.71;33.89;100198.32;122220;1153;22540;-78
2021/04/01 09:26:10;;;;;;;33.28;29.68;;;;;;;23.51;33.88;100196.24;122186;1152;24693;-79
2021/04/01 09:28:44;;;;;;;31.13;27.45;;;;;;;23.42;34.03;100192.38;122133;1152;22606;-79
2021/04/01 09:31:17;;;;;;;32.13;28.73;;;;;;;23.32;33.89;100189.59;122145;1152;24908;-78
2021/04/01 09:33:47;;;;;;;31.95;27.00;;;;;;;23.28;34.10;100193.88;122223;1152;23471;-78
2021/04/01 09:36:22;;;;;;;35.38;28.70;;;;;;;23.30;34.04;100197.15;122342;1152;23052;-77
2021/04/01 09:38:56;;;;;;;37.37;31.10;;;;;;;23.16;34.03;100194.87;122494;1151;22764;-77
2021/04/01 09:41:32;;;;;;;33.58;29.08;;;;;;;22.90;33.97;100196.45;122410;1154;24469;-77
2021/04/01 09:44:05;;;;;;;33.95;30.00;;;;;;;22.73;34.14;100193.84;122247;1152;22621;-76
2021/04/01 09:46:47;;;;;;;37.75;29.50;;;;;;;22.64;34.11;100189.15;122381;1152;22558;-77
2021/04/01 09:49:20;;;;;;;34.50;27.50;;;;;;;22.53;34.55;100191.72;122233;1152;22636;-79
2021/04/01 09:52:01;;;;;;;34.25;27.53;;;;;;;22.54;34.53;100182.56;122300;1152;23323;-79
2021/04/01 09:54:31;;;;;;;32.73;27.90;;;;;;;22.60;34.88;100179.95;122373;1152;22546;-72
2021/04/01 09:57:00;;;;;;;32.80;29.43;;;;;;;22.63;34.53;100177.57;122370;1152;22559;-74
2021/04/01 10:02:34;;;;;;;36.70;32.63;;;;;;;22.79;34.57;100181.23;121711;1155;22564;-73
2021/04/01 10:05:06;;;;;;;37.23;31.85;;;;;;;22.85;34.24;100177.52;121681;1155;22578;-74
2021/04/01 10:07:37;;;;;;;35.50;30.40;;;;;;;22.88;34.20;100173.52;121650;1156;23326;-73
2021/04/01 10:10:06;;;;;;;32.40;28.98;;;;;;;22.79;34.03;100179.38;122122;1155;22557;-75
2021/04/01 10:12:41;;;;;;;37.95;29.88;;;;;;;22.74;33.57;100163.14;122030;1155;24705;-73
2021/04/01 10:15:10;;;;;;;38.90;32.77;;;;;;;22.67;33.96;100159.03;121760;1155;22565;-75
2021/04/01 10:17:40;;;;;;;36.77;29.53;;;;;;;22.58;34.15;100157.84;121810;1152;23010;-76
2021/04/01 10:20:09;;;;;;;33.93;30.23;;;;;;;22.46;34.11;100148.03;122166;1152;22537;-77
2021/04/01 10:22:39;;;;;;;33.00;29.28;;;;;;;22.45;34.24;100151.77;122174;1152;23130;-78
2021/04/01 10:25:16;;;;;;;31.48;26.78;;;;;;;22.37;34.04;100143.34;122281;1152;22600;-78
2021/04/01 10:30:19;;;;;;;32.43;28.90;;;;;;;22.33;33.98;100143.03;122215;1152;22566;-78
2021/04/01 10:33:06;;;;;;;34.67;29.77;;;;;;;22.33;33.58;100148.41;122194;1152;23468;-79
2021/04/01 10:35:37;;;;;;;32.65;27.05;;;;;;;22.26;33.26;100135.14;122205;1152;22532;-74
2021/04/01 10:38:06;;;;;;;33.78;27.73;;;;;;;22.26;34.05;100137.02;122183;1152;22557;-74
2021/04/01 10:40:35;;;;;;;30.48;26.55;;;;;;;22.39;33.89;100130.42;122194;1154;24441;-77
2021/04/01 10:43:11;;;;;;;33.83;27.83;;;;;;;22.56;33.92;100131.19;122233;1152;23323;-75
2021/04/01 10:45:46;;;;;;;33.78;26.78;;;;;;;22.70;32.82;100121.64;122237;1154;22627;-74
2021/04/01 10:48:33;;;;;;;31.65;28.45;;;;;;;22.81;32.80;100116.36;122132;1154;24438;-75
2021/04/01 10:51:07;;;;;;;30.10;25.45;;;;;;;22.94;32.69;100119.48;122270;1152;22628;-74
2021/04/01 10:53:42;;;;;;;29.25;26.20;;;;;;;23.05;32.07;100117.69;122215;1152;24420;-74
2021/04/01 10:56:14;;;;;;;28.68;25.65;;;;;;;23.09;32.04;100117.98;121987;1155;22553;-75
2021/04/01 10:58:54;;;;;;;31.15;26.73;;;;;;;23.03;31.77;100122.53;121624;1155;22541;-75
2021/04/01 11:01:43;;;;;;;29.48;26.30;;;;;;;22.95;32.08;100123.79;121745;1155;23559;-75
2021/04/01 11:04:14;;;;;;;30.30;26.63;;;;;;;22.88;32.41;100122.34;121658;1155;22546;-74
2021/04/01 11:06:45;;;;;;;30.85;27.55;;;;;;;22.82;32.06;100113.39;121647;1155;22561;-74
2021/04/01 11:09:14;;;;;;;30.43;27.10;;;;;;;22.72;32.07;100115.98;121647;1155;22643;-74
2021/04/01 11:14:24;;;;;;;33.53;26.18;;;;;;;22.62;31.43;100134.73;121669;1157;23331;-75
2021/04/01 11:16:54;;;;;;;32.05;26.78;;;;;;;22.55;31.75;100134.92;121698;1155;23127;-76
2021/04/01 11:19:24;;;;;;;40.65;27.70;;;;;;;22.51;31.99;100140.00;121685;1157;22557;-75
2021/04/01 11:21:55;;;;;;;32.93;27.20;;;;;;;22.48;32.58;100142.38;122148;1152;22549;-74
2021/04/01 11:24:31;;;;;;;35.93;28.83;;;;;;;22.42;32.57;100144.19;122188;1152;22623;-75
2021/04/01 11:27:18;;;;;;;40.93;30.60;;;;;;;22.23;32.87;100137.52;122169;1152;22715;-74
2021/04/01 11:30:06;;;;;;;41.00;31.70;;;;;;;22.06;33.42;100134.85;122288;1152;22551;-75
2021/04/01 11:32:37;;;;;;;35.23;30.45;;;;;;;21.82;33.42;100142.30;122129;1154;22538;-75
2021/04/01 11:35:06;;;;;;;37.73;31.60;;;;;;;21.78;34.16;100147.35;122133;1154;24696;-74
2021/04/01 11:37:37;;;;;;;36.08;32.20;;;;;;;21.65;33.94;100147.69;122146;1153;22552;-75
2021/04/01 11:40:08;;;;;;;34.88;31.18;;;;;;;21.54;34.91;100146.73;122030;1155;23585;-74
2021/04/01 11:42:36;;;;;;;34.68;31.13;;;;;;;21.43;35.00;100142.27;121565;1158;22707;-75
2021/04/01 11:45:08;;;;;;;36.13;32.30;;;;;;;21.37;35.67;100133.30;121562;1155;22574;-76
2021/04/01 11:47:36;;;;;;;;;;;;;;;21.29;35.73;100140.91;121676;1158;24863;-76
2021/04/01 11:50:09;;;;;;;36.83;31.43;;;;;;;21.17;36.01;100140.98;121381;1158;21348;-74
2021/04/01 11:52:39;;;;;;;41.00;34.18;;;;;;;21.01;35.93;100137.22;121454;1158;22781;-75
2021/04/01 11:55:11;;;;;;;39.60;31.90;;;;;;;20.91;36.58;100143.22;121199;1158;22586;-74
2021/04/01 11:57:46;;;;;;;44.38;33.75;;;;;;;20.89;36.28;100137.29;121162;1158;22649;-76
2021/04/01 12:00:25;;;;;;;39.23;35.07;;;;;;;20.82;35.87;100139.28;121177;1161;22740;-75
2021/04/01 12:03:13;;;;;;;45.50;34.23;;;;;;;20.73;36.46;100138.06;121019;1161;22574;-74
2021/04/01 12:05:47;;;;;;;42.80;33.93;;;;;;;20.65;36.30;100136.55;120857;1164;24823;-77
2021/04/01 12:08:16;;;;;;;42.10;33.85;;;;;;;20.61;36.70;100135.41;121036;1161;22706;-74
2021/04/01 12:10:56;;;;;;;38.75;31.08;;;;;;;20.61;36.50;100132.72;121096;1159;22778;-77
2021/04/01 12:13:25;;;;;;;43.55;39.25;;;;;;;20.62;37.09;100137.03;121145;1158;22593;-77
2021/04/01 12:15:54;;;;;;;42.13;32.43;;;;;;;20.65;37.23;100135.74;121118;1158;22560;-76
2021/04/01 12:18:22;;;;;;;40.27;33.37;;;;;;;20.64;37.25;100140.30;121080;1158;22702;-76
2021/04/01 12:20:51;;;;;;;40.30;30.53;;;;;;;20.61;37.32;100131.91;121206;1159;25205;-77
2021/04/01 12:23:23;;;;;;;36.78;30.43;;;;;;;20.58;37.06;100143.13;121475;1159;22564;-76
2021/04/01 12:26:13;;;;;;;37.28;30.30;;;;;;;20.53;36.68;100143.04;121595;1155;22563;-76
2021/04/01 12:28:42;;;;;;;36.65;32.68;;;;;;;20.50;36.50;100141.61;121256;1158;22571;-77
2021/04/01 12:31:17;;;;;;;36.50;31.55;;;;;;;20.50;36.24;100144.30;121482;1158;23085;-77
2021/04/01 12:33:51;;;;;;;48.63;32.58;;;;;;;20.52;36.26;100141.39;121346;1155;22563;-77
2021/04/01 12:36:34;;;;;;;39.50;31.35;;;;;;;20.52;36.10;100136.02;121700;1155;22635;-78
2021/04/01 12:39:09;;;;;;;37.75;29.95;;;;;;;20.52;36.05;100133.34;121682;1155;24432;-78
2021/04/01 12:41:40;;;;;;;38.90;29.48;;;;;;;20.46;35.71;100132.41;121694;1155;22543;-78
2021/04/01 12:44:08;;;;;;;34.95;26.63;;;;;;;20.41;35.14;100129.61;121711;1158;22555;-77
2021/04/01 12:46:42;;;;;;;32.35;24.25;;;;;;;20.41;34.53;100122.38;122006;1155;24459;-77
2021/04/01 12:49:14;;;;;;;31.55;24.33;;;;;;;20.39;34.13;100123.66;121679;1155;24461;-76
2021/04/01 12:52:00;;;;;;;33.00;21.33;;;;;;;20.35;33.76;100125.19;121680;1155;22603;-76
2021/04/01 12:54:35;;;;;;;32.53;22.50;;;;;;;20.28;33.49;100130.69;122093;1152;25160;-77
2021/04/01 12:57:10;;;;;;;25.18;18.63;;;;;;;20.26;33.25;100126.61;122147;1152;22536;-77
2021/04/01 12:59:51;;;;;;;23.95;17.90;;;;;;;20.21;32.86;100140.74;122157;1152;25833;-79
2021/04/01 13:02:24;;;;;;;27.60;19.03;;;;;;;20.11;32.71;100135.97;121803;1155;22535;-77
2021/04/01 13:04:56;;;;;;;20.65;14.78;;;;;;;20.01;32.57;100145.67;122135;1155;24705;-77